Time;durP1;ratioP1;P1;durP2;ratioP2;P2;SDS_P1;SDS_P2;PMS_P1;PMS_P2;Temp;Humidity;BMP_temperature;BMP_pressure;BME280_temperature;BME280_humidity;BME280_pressure;Samples;Min_cycle;Max_cycle;Signal;HPM_P1;HPM_P2
2022/05/01 00:00:15;;;;;;;7.07;3.47;;;;;;;7.85;100.00;97433.50;5064896;28;20067;-70
2022/05/01 00:02:41;;;;;;;6.45;3.75;;;;;;;7.94;100.00;97441.63;5064803;28;20060;-68
2022/05/01 00:05:09;;;;;;;5.82;3.92;;;;;;;7.85;100.00;97438.19;5065258;28;20126;-71
2022/05/01 00:07:36;;;;;;;8.00;4.28;;;;;;;7.17;100.00;97344.13;5064618;28;20102;-71
2022/05/01 00:10:03;;;;;;;6.28;3.90;;;;;;;7.16;99.52;97306.69;5065135;28;20048;-71
2022/05/01 00:12:30;;;;;;;7.03;4.25;;;;;;;7.93;99.46;97432.56;5064582;28;20052;-70
2022/05/01 00:14:57;;;;;;;7.45;4.45;;;;;;;7.50;99.13;97383.47;5064633;28;20048;-69
2022/05/01 00:17:24;;;;;;;7.45;4.40;;;;;;;6.91;100.00;97316.06;5063059;28;20055;-70
2022/05/01 00:19:50;;;;;;;7.75;3.95;;;;;;;7.67;99.59;97432.06;5064410;28;20099;-68
2022/05/01 00:22:18;;;;;;;4.68;3.63;;;;;;;7.56;100.00;97448.25;5064496;28;20426;-70
2022/05/01 00:24:45;;;;;;;6.60;3.55;;;;;;;7.53;100.00;97448.94;5064287;28;20056;-70
2022/05/01 00:27:12;;;;;;;6.45;4.35;;;;;;;7.06;100.00;97397.25;5064263;28;20056;-70
2022/05/01 00:29:39;;;;;;;11.50;4.63;;;;;;;5.39;100.00;97107.34;5062881;28;20167;-71
2022/05/01 00:32:07;;;;;;;6.72;4.30;;;;;;;7.38;100.00;97441.31;5062180;28;20518;-69
2022/05/01 00:37:19;;;;;;;6.10;3.85;;;;;;;7.31;100.00;97446.56;5064769;28;20057;-69
2022/05/01 00:39:47;;;;;;;6.93;4.18;;;;;;;6.91;100.00;97360.13;5062498;28;20058;-70
2022/05/01 00:42:17;;;;;;;6.40;3.83;;;;;;;7.05;100.00;97399.19;5063782;28;20081;-69
2022/05/01 00:44:44;;;;;;;8.43;4.60;;;;;;;7.68;100.00;97448.28;5062713;28;20079;-72
2022/05/01 00:47:12;;;;;;;6.45;3.95;;;;;;;7.69;99.72;97458.16;5062893;28;20111;-72
2022/05/01 00:49:39;;;;;;;7.82;4.43;;;;;;;7.37;99.62;97436.13;5063182;28;20054;-69
2022/05/01 00:52:11;;;;;;;6.13;3.83;;;;;;;7.53;100.00;97473.75;5064737;28;20062;-69
2022/05/01 00:54:41;;;;;;;9.93;4.55;;;;;;;7.09;100.00;97413.91;5064397;28;20592;-73
2022/05/01 00:57:09;;;;;;;7.32;4.40;;;;;;;6.09;100.00;97228.16;5062683;28;20052;-69
2022/05/01 00:59:37;;;;;;;6.72;3.88;;;;;;;7.62;100.00;97457.09;5064554;28;20567;-73
2022/05/01 01:02:05;;;;;;;5.78;3.97;;;;;;;7.58;99.79;97459.75;5063880;28;20141;-73
2022/05/01 01:04:33;;;;;;;5.80;4.22;;;;;;;7.42;100.00;97464.28;5064711;28;20071;-71
2022/05/01 01:06:59;;;;;;;8.20;3.55;;;;;;;7.40;100.00;97447.28;5063900;28;20052;-70
2022/05/01 01:09:26;;;;;;;6.95;3.95;;;;;;;7.54;100.00;97455.22;5063839;28;20450;-68
2022/05/01 01:14:40;;;;;;;6.35;3.60;;;;;;;7.21;96.94;97413.94;5063948;28;20148;-70
2022/05/01 01:17:07;;;;;;;7.55;4.28;;;;;;;7.52;98.31;97465.81;5063523;28;20052;-69
2022/05/01 01:19:33;;;;;;;11.80;5.00;;;;;;;7.54;99.08;97467.06;5062829;28;20508;-69
2022/05/01 01:22:01;;;;;;;5.35;3.50;;;;;;;7.56;99.87;97475.81;5063552;28;20060;-68
2022/05/01 01:24:28;;;;;;;5.65;4.18;;;;;;;7.09;98.36;97397.38;5063840;28;20518;-67
2022/05/01 01:26:56;;;;;;;6.22;3.75;;;;;;;7.41;98.36;97456.38;5063154;28;20056;-70
2022/05/01 01:32:12;;;;;;;6.63;4.30;;;;;;;7.67;99.03;97488.03;5063317;28;20093;-70
2022/05/01 01:34:42;;;;;;;8.43;4.82;;;;;;;7.36;98.04;97432.59;5063877;28;20051;-69
2022/05/01 01:37:11;;;;;;;6.20;4.13;;;;;;;7.66;98.28;97480.91;5065461;28;20060;-69
2022/05/01 01:39:39;;;;;;;10.23;3.83;;;;;;;7.47;100.00;97480.63;5067575;28;20431;-70
2022/05/01 01:42:07;;;;;;;7.57;4.18;;;;;;;7.55;98.51;97476.97;5067489;28;20063;-69
2022/05/01 01:44:37;;;;;;;6.20;4.07;;;;;;;7.37;98.69;97450.72;5066166;28;20037;-69
2022/05/01 01:47:05;;;;;;;5.55;3.90;;;;;;;7.57;98.63;97477.41;5066283;28;20055;-69
2022/05/01 01:49:33;;;;;;;9.77;4.28;;;;;;;7.47;99.22;97472.34;5067639;28;20067;-69
2022/05/01 01:52:00;;;;;;;6.65;3.80;;;;;;;7.40;100.00;97466.56;5065802;28;20052;-70
2022/05/01 01:54:27;;;;;;;8.55;4.30;;;;;;;7.38;99.72;97457.84;5067280;28;20044;-68
2022/05/01 01:56:55;;;;;;;8.85;4.70;;;;;;;7.25;100.00;97447.94;5066782;28;20048;-68
2022/05/01 01:59:22;;;;;;;6.65;4.28;;;;;;;6.93;100.00;97407.41;5067205;28;20068;-68
2022/05/01 02:01:49;;;;;;;6.28;4.03;;;;;;;6.84;100.00;97387.41;5066869;28;20440;-69
2022/05/01 02:04:17;;;;;;;8.00;4.13;;;;;;;4.06;100.00;97117.22;5065629;28;20059;-69
2022/05/01 02:06:44;;;;;;;7.50;4.53;;;;;;;5.48;100.00;97141.84;5066106;28;20053;-70
2022/05/01 02:09:12;;;;;;;7.05;4.28;;;;;;;6.80;100.00;97345.16;5067025;28;20052;-70
2022/05/01 02:11:39;;;;;;;7.10;4.53;;;;;;;7.24;100.00;97424.28;5066806;28;20052;-70
2022/05/01 02:14:10;;;;;;;7.82;4.53;;;;;;;7.19;100.00;97420.94;5066986;28;20059;-70
2022/05/01 02:16:36;;;;;;;6.78;4.35;;;;;;;7.08;100.00;97430.75;5066947;28;20057;-71
2022/05/01 02:19:03;;;;;;;6.38;3.92;;;;;;;7.00;100.00;97490.25;5065916;28;20079;-70
2022/05/01 02:21:36;;;;;;;7.28;4.07;;;;;;;7.27;100.00;97434.59;5066858;28;20325;-68
2022/05/01 02:24:10;;;;;;;8.70;4.45;;;;;;;7.04;100.00;97436.13;5067123;28;20037;-70
2022/05/01 02:26:37;;;;;;;;;;;;;;;7.01;100.00;97431.31;5055338;28;20470;-68
2022/05/01 02:29:10;;;;;;;7.25;4.47;;;;;;;7.16;100.00;97432.63;5065297;28;19947;-70
2022/05/01 02:31:42;;;;;;;11.20;4.45;;;;;;;7.15;100.00;97431.00;5067219;28;20052;-70
2022/05/01 02:34:10;;;;;;;10.70;5.55;;;;;;;6.88;100.00;97382.81;5067154;28;20554;-69
2022/05/01 02:36:38;;;;;;;11.98;5.00;;;;;;;6.91;100.00;97398.66;5065395;28;20060;-70
2022/05/01 02:39:05;;;;;;;9.95;4.93;;;;;;;6.69;100.00;97351.41;5066839;28;20063;-69
2022/05/01 02:41:32;;;;;;;8.75;4.57;;;;;;;6.96;100.00;97398.47;5066276;28;20554;-69
2022/05/01 02:43:59;;;;;;;9.23;4.13;;;;;;;6.98;97.76;97393.44;5066526;28;20499;-69
2022/05/01 02:46:26;;;;;;;10.05;5.18;;;;;;;6.97;100.00;97422.09;5066871;28;20052;-71
2022/05/01 02:48:53;;;;;;;7.72;4.65;;;;;;;6.97;100.00;97408.31;5066084;28;20532;-70
2022/05/01 02:51:20;;;;;;;8.55;5.30;;;;;;;6.96;100.00;97412.22;5066549;28;20048;-70
2022/05/01 02:53:52;;;;;;;10.22;4.66;;;;;;;6.51;100.00;97361.78;2051690;28;10002034;-71
2022/05/01 02:56:18;;;;;;;10.65;4.25;;;;;;;6.86;100.00;97412.63;4991385;28;20065;-68
2022/05/01 02:58:45;;;;;;;13.73;5.10;;;;;;;6.00;100.00;97302.47;5044734;28;20523;-71
2022/05/01 03:01:12;;;;;;;9.40;4.78;;;;;;;6.92;100.00;97422.31;5046193;28;20044;-69
2022/05/01 03:03:38;;;;;;;10.48;5.32;;;;;;;6.70;100.00;97381.34;5046417;28;20055;-71
2022/05/01 03:06:05;;;;;;;13.77;5.70;;;;;;;6.97;100.00;97413.84;5045717;28;20534;-70
2022/05/01 03:08:32;;;;;;;7.90;4.65;;;;;;;6.13;100.00;97289.59;5045812;28;20057;-71
2022/05/01 03:10:58;;;;;;;14.32;8.02;;;;;;;6.59;100.00;97352.63;5045883;28;20079;-68
2022/05/01 03:13:25;;;;;;;12.38;6.93;;;;;;;6.91;99.82;97403.34;5045863;28;20108;-70
2022/05/01 03:15:52;;;;;;;14.90;7.78;;;;;;;7.00;99.40;97424.16;5045684;28;20049;-70
2022/05/01 03:23:50;;;;;;;11.25;6.55;;;;;;;6.52;100.00;97385.41;5046030;28;20057;-70
2022/05/01 03:26:18;;;;;;;11.55;6.30;;;;;;;6.22;100.00;97331.59;5044213;28;20063;-70
2022/05/01 03:28:48;;;;;;;8.90;5.18;;;;;;;6.98;100.00;97426.47;5045494;28;20419;-71
2022/05/01 03:31:15;;;;;;;10.23;4.78;;;;;;;6.95;100.00;97421.66;5045776;28;20597;-70
2022/05/01 03:33:44;;;;;;;7.90;5.13;;;;;;;6.49;100.00;97347.56;5045350;28;20048;-69
2022/05/01 03:36:11;;;;;;;8.25;4.45;;;;;;;6.95;100.00;97409.81;5044932;28;20061;-69
2022/05/01 03:38:40;;;;;;;7.93;4.45;;;;;;;7.07;100.00;97424.44;5044273;28;20060;-70
2022/05/01 03:41:10;;;;;;;11.60;4.85;;;;;;;6.21;100.00;97266.72;5045463;28;20056;-68
2022/05/01 03:43:37;;;;;;;7.70;4.85;;;;;;;6.97;100.00;97391.81;5045581;28;20071;-70
2022/05/01 03:46:06;;;;;;;7.63;5.70;;;;;;;7.03;99.38;97393.22;5043797;28;20060;-70
2022/05/01 03:48:33;;;;;;;10.82;5.55;;;;;;;6.98;100.00;97415.47;5044065;28;20045;-68
2022/05/01 03:51:00;;;;;;;12.40;6.53;;;;;;;6.61;100.00;97361.38;5043759;28;20045;-70
2022/05/01 03:53:29;;;;;;;11.10;5.40;;;;;;;7.29;99.44;97410.28;5050978;28;20479;-67
2022/05/01 03:55:56;;;;;;;9.35;4.13;;;;;;;7.45;99.63;97430.53;5063123;28;20055;-69
2022/05/01 03:58:23;;;;;;;8.50;4.65;;;;;;;7.17;100.00;97385.47;5064930;28;20060;-69
2022/05/01 04:00:50;;;;;;;7.40;4.28;;;;;;;7.67;98.60;97441.16;5063811;28;20056;-70
2022/05/01 04:03:18;;;;;;;7.82;4.95;;;;;;;7.18;97.05;97344.94;5064738;28;20114;-70
2022/05/01 04:05:45;;;;;;;9.23;4.72;;;;;;;7.86;95.88;97439.78;5063364;28;20560;-71
2022/05/01 04:08:12;;;;;;;10.98;4.20;;;;;;;7.78;98.37;97410.38;5064718;28;20596;-71
2022/05/01 04:10:44;;;;;;;12.82;8.27;;;;;;;7.60;97.73;97410.56;5064715;28;20049;-70
2022/05/01 04:13:12;;;;;;;9.27;6.03;;;;;;;7.89;97.43;97419.81;5064176;28;20048;-70
2022/05/01 04:15:40;;;;;;;7.53;5.22;;;;;;;7.96;97.86;97417.28;5064484;28;20059;-68
2022/05/01 04:18:08;;;;;;;8.80;4.65;;;;;;;7.84;97.34;97359.38;5064302;28;20052;-70
2022/05/01 04:20:39;;;;;;;14.90;7.93;;;;;;;7.99;94.70;97405.56;5064702;28;20056;-70
2022/05/01 04:23:06;;;;;;;20.33;12.07;;;;;;;8.47;93.28;97433.16;5064503;28;20522;-71
2022/05/01 04:25:34;;;;;;;16.60;9.60;;;;;;;8.11;93.12;97364.19;5064520;28;20056;-68
2022/05/01 04:28:03;;;;;;;13.30;6.93;;;;;;;8.58;92.09;97407.47;5062951;28;20442;-70
2022/05/01 04:30:33;;;;;;;12.50;6.25;;;;;;;8.83;90.76;97441.38;5064093;28;20522;-70
2022/05/01 04:33:10;;;;;;;11.68;6.97;;;;;;;8.56;90.82;97411.75;5063046;28;20461;-69
2022/05/01 04:35:45;;;;;;;12.25;6.25;;;;;;;8.48;91.52;97354.72;5062838;28;20057;-70
2022/05/01 04:38:19;;;;;;;12.48;6.97;;;;;;;9.20;90.20;97440.09;5064230;28;20513;-70
2022/05/01 04:40:52;;;;;;;10.40;6.18;;;;;;;9.12;90.17;97405.13;5064142;28;20063;-70
2022/05/01 04:43:30;;;;;;;;;;;;;;;9.57;87.76;97438.78;5062790;28;20514;-70
2022/05/01 04:45:58;;;;;;;10.10;5.53;;;;;;;9.26;89.13;97391.72;5062585;28;19924;-69
2022/05/01 04:48:26;;;;;;;11.05;5.95;;;;;;;9.78;90.38;97433.81;5064153;28;20143;-70
2022/05/01 04:50:53;;;;;;;10.77;5.18;;;;;;;9.98;88.97;97435.50;5063351;28;20501;-71
2022/05/01 04:53:21;;;;;;;8.05;5.38;;;;;;;10.19;86.90;97436.09;5063688;28;20049;-73
2022/05/01 04:55:49;;;;;;;11.75;6.03;;;;;;;10.28;85.92;97445.00;5064201;28;20514;-71
2022/05/01 04:58:16;;;;;;;14.02;7.03;;;;;;;10.37;84.78;97429.00;5063896;28;20056;-70
2022/05/01 05:00:44;;;;;;;12.27;5.57;;;;;;;10.36;84.30;97407.22;5063614;28;20048;-71
2022/05/01 05:03:11;;;;;;;9.07;6.45;;;;;;;10.48;85.33;97402.34;5063634;28;20056;-71
2022/05/01 05:05:38;;;;;;;15.13;6.22;;;;;;;10.89;83.96;97427.81;5063588;28;20125;-70
2022/05/01 05:10:51;;;;;;;16.52;9.70;;;;;;;10.89;81.80;97377.94;5063422;28;20135;-71
2022/05/01 05:13:24;;;;;;;23.05;10.40;;;;;;;11.30;81.53;97432.66;5062910;28;20161;-72
2022/05/01 05:15:53;;;;;;;13.13;8.00;;;;;;;11.03;82.38;97389.31;5063759;28;20151;-72
2022/05/01 05:18:20;;;;;;;11.07;6.93;;;;;;;10.91;82.73;97337.59;5062195;28;20107;-71
2022/05/01 05:20:47;;;;;;;12.30;8.75;;;;;;;11.48;81.93;97386.63;5063532;28;20056;-72
2022/05/01 05:23:13;;;;;;;15.15;8.55;;;;;;;10.99;78.89;97270.03;5063555;28;20129;-72
2022/05/01 05:25:40;;;;;;;11.77;7.85;;;;;;;12.11;78.49;97421.09;5063677;28;20500;-72
2022/05/01 05:28:08;;;;;;;11.30;6.75;;;;;;;11.84;77.17;97386.94;5062485;28;20055;-72
2022/05/01 05:30:38;;;;;;;11.75;7.88;;;;;;;12.48;76.90;97432.44;5062097;28;20056;-72
2022/05/01 05:33:05;;;;;;;17.50;8.00;;;;;;;12.39;75.73;97413.25;5061845;28;20052;-71
2022/05/01 05:35:32;;;;;;;10.35;6.85;;;;;;;12.40;75.24;97364.03;5062104;28;20127;-72
2022/05/01 05:37:59;;;;;;;11.38;8.40;;;;;;;12.71;74.93;97400.63;5061804;28;20056;-72
2022/05/01 05:40:26;;;;;;;15.93;9.57;;;;;;;12.70;77.19;97435.16;5063442;28;20052;-68
2022/05/01 05:42:52;;;;;;;13.48;9.15;;;;;;;13.04;76.53;97422.97;5063640;28;20056;-71
2022/05/01 05:45:19;;;;;;;14.45;8.80;;;;;;;13.31;74.66;97427.31;5063453;28;20048;-68
2022/05/01 05:47:46;;;;;;;10.90;6.60;;;;;;;13.59;74.20;97426.84;5063245;28;20048;-71
2022/05/01 05:50:12;;;;;;;10.68;6.72;;;;;;;13.78;72.88;97423.06;5063139;28;20059;-69
2022/05/01 05:52:40;;;;;;;9.35;6.68;;;;;;;14.05;72.70;97427.31;5062736;28;20044;-70
2022/05/01 05:55:07;;;;;;;10.10;5.95;;;;;;;14.25;71.98;97425.94;5063371;28;20811;-71
2022/05/01 05:57:34;;;;;;;8.15;5.13;;;;;;;14.40;69.68;97416.53;5061912;28;20084;-71
2022/05/01 06:00:01;;;;;;;6.00;4.60;;;;;;;14.43;61.79;97410.97;5064046;28;20501;-72
2022/05/01 06:02:35;;;;;;;5.80;4.30;;;;;;;14.81;57.12;97431.97;5061978;28;20109;-70
2022/05/01 06:05:03;;;;;;;6.25;4.53;;;;;;;15.01;57.40;97430.50;5063552;28;20494;-71
2022/05/01 06:07:30;;;;;;;4.30;3.72;;;;;;;15.24;52.35;97428.22;5063256;28;20084;-71
2022/05/01 06:09:57;;;;;;;4.88;4.07;;;;;;;15.47;52.55;97425.97;5063684;28;20063;-69
2022/05/01 06:12:23;;;;;;;5.00;4.05;;;;;;;15.07;51.16;97345.22;5061742;28;20549;-72
2022/05/01 06:14:50;;;;;;;4.65;3.53;;;;;;;15.11;49.77;97318.16;5061997;28;20064;-71
2022/05/01 06:17:17;;;;;;;4.90;3.72;;;;;;;15.33;48.87;97336.56;5063073;28;20048;-72
2022/05/01 06:19:43;;;;;;;3.15;2.95;;;;;;;15.74;46.34;97368.63;5063614;28;20059;-69
2022/05/01 06:22:11;;;;;;;4.22;3.08;;;;;;;15.54;47.73;97331.06;5061255;28;20053;-71
2022/05/01 06:24:37;;;;;;;4.07;3.40;;;;;;;16.18;48.06;97424.97;5066859;28;20487;-72
2022/05/01 06:27:04;;;;;;;3.72;3.00;;;;;;;16.38;48.14;97428.97;5064908;28;20048;-71
2022/05/01 06:29:31;;;;;;;4.03;2.80;;;;;;;16.23;46.45;97396.59;5066866;28;20048;-72
2022/05/01 06:31:57;;;;;;;3.30;3.00;;;;;;;16.56;43.31;97437.41;5066365;28;20052;-72
2022/05/01 06:34:24;;;;;;;3.95;3.60;;;;;;;16.63;44.68;97427.00;5066670;28;20560;-72
2022/05/01 06:36:51;;;;;;;3.17;2.92;;;;;;;16.70;42.94;97408.59;5064593;28;20533;-72
2022/05/01 06:39:18;;;;;;;3.20;2.90;;;;;;;16.99;44.01;97438.16;5066391;28;20476;-71
2022/05/01 06:41:44;;;;;;;3.78;3.15;;;;;;;16.88;42.49;97415.00;5066153;28;20056;-70
2022/05/01 06:44:11;;;;;;;3.42;3.13;;;;;;;17.28;42.73;97423.69;5066365;28;20049;-68
2022/05/01 06:46:37;;;;;;;6.32;3.67;;;;;;;17.40;43.57;97430.84;5064973;28;20059;-68
2022/05/01 06:49:05;;;;;;;3.40;3.10;;;;;;;16.86;43.71;97339.03;5065935;28;20589;-69
2022/05/01 06:51:32;;;;;;;5.72;3.53;;;;;;;17.28;42.84;97428.47;5065862;28;20048;-68
2022/05/01 06:53:59;;;;;;;3.17;2.92;;;;;;;17.20;42.06;97433.31;5064637;28;20048;-68
2022/05/01 06:56:25;;;;;;;3.60;3.30;;;;;;;17.55;41.03;97421.19;5064842;28;20055;-68
2022/05/01 06:58:52;;;;;;;3.38;3.00;;;;;;;17.70;41.94;97417.16;5066118;28;20048;-69
2022/05/01 07:01:19;;;;;;;5.15;3.50;;;;;;;17.74;41.63;97415.13;5065591;28;20056;-68
2022/05/01 07:03:52;;;;;;;3.50;3.20;;;;;;;17.96;41.31;97425.00;5065816;28;20137;-69
2022/05/01 07:06:19;;;;;;;3.83;3.58;;;;;;;17.68;40.90;97352.31;5064293;28;20059;-69
2022/05/01 07:08:45;;;;;;;3.80;3.50;;;;;;;17.73;39.37;97379.91;5064329;28;20060;-69
2022/05/01 07:11:12;;;;;;;4.82;3.13;;;;;;;18.19;39.93;97425.28;5063913;28;20511;-68
2022/05/01 07:13:40;;;;;;;3.58;3.28;;;;;;;16.83;40.46;97339.84;5064370;28;20064;-69
2022/05/01 07:16:06;;;;;;;4.30;3.15;;;;;;;16.46;41.94;97341.13;5065926;28;20056;-68
2022/05/01 07:18:33;;;;;;;3.78;3.47;;;;;;;16.62;42.16;97435.78;5065411;28;20044;-68
2022/05/01 07:21:00;;;;;;;4.15;3.47;;;;;;;16.85;41.79;97407.41;5065615;28;20057;-68
2022/05/01 07:23:28;;;;;;;2.85;2.65;;;;;;;16.73;40.95;97375.03;5065632;28;20075;-69
2022/05/01 07:25:55;;;;;;;3.67;3.20;;;;;;;17.15;42.13;97368.53;5061618;28;20051;-69
2022/05/01 07:28:21;;;;;;;4.10;3.38;;;;;;;17.17;41.31;97326.91;5063764;28;20044;-69
2022/05/01 07:30:48;;;;;;;3.33;3.00;;;;;;;17.62;40.96;97418.38;5065552;28;20097;-68
2022/05/01 07:33:15;;;;;;;3.45;3.17;;;;;;;17.92;41.81;97421.44;5063910;28;20049;-69
2022/05/01 07:35:43;;;;;;;5.15;3.33;;;;;;;17.67;40.93;97423.56;5065573;28;20063;-69
2022/05/01 07:38:09;;;;;;;4.97;3.40;;;;;;;17.81;40.18;97403.88;5065452;28;20064;-69
2022/05/01 07:40:36;;;;;;;3.67;3.08;;;;;;;17.30;40.24;97398.06;5064875;28;20055;-68
2022/05/01 07:43:03;;;;;;;4.53;3.13;;;;;;;17.76;40.66;97416.31;5065265;28;20063;-67
2022/05/01 07:45:30;;;;;;;4.38;2.92;;;;;;;18.15;39.41;97421.69;5063507;28;20067;-67
2022/05/01 07:48:05;;;;;;;3.70;2.97;;;;;;;18.26;36.96;97411.19;5063789;28;20110;-67
2022/05/01 07:50:32;;;;;;;3.00;2.80;;;;;;;17.68;38.79;97397.13;5064639;28;20048;-67
2022/05/01 07:52:58;;;;;;;4.93;4.07;;;;;;;18.00;38.75;97417.38;5064835;28;20135;-68
2022/05/01 07:55:25;;;;;;;4.07;3.63;;;;;;;17.64;39.80;97343.13;5043412;28;20045;-68
2022/05/01 07:57:52;;;;;;;3.35;3.08;;;;;;;18.61;38.66;97410.13;5045157;28;20064;-68
2022/05/01 08:00:19;;;;;;;3.10;2.85;;;;;;;18.09;38.07;97288.75;5045715;28;20053;-70
2022/05/01 08:05:31;;;;;;;3.72;3.42;;;;;;;18.92;36.08;97359.31;5044723;28;20045;-68
2022/05/01 08:07:58;;;;;;;5.28;3.30;;;;;;;19.27;35.38;97397.44;5043000;28;20049;-70
2022/05/01 08:10:25;;;;;;;3.88;3.10;;;;;;;19.26;36.22;97407.09;5043101;28;20503;-68
2022/05/01 08:12:52;;;;;;;3.00;2.80;;;;;;;18.49;37.52;97403.03;5043797;28;20052;-68
2022/05/01 08:15:19;;;;;;;4.18;2.80;;;;;;;19.11;37.61;97400.03;5043256;28;20056;-68
2022/05/01 08:17:46;;;;;;;4.65;3.60;;;;;;;19.35;35.84;97402.59;5044695;28;20064;-68
2022/05/01 08:23:07;;;;;;;3.88;3.45;;;;;;;20.22;35.72;97404.66;5043935;28;20057;-68
2022/05/01 08:25:35;;;;;;;5.93;3.90;;;;;;;20.34;36.13;97392.84;5044761;28;20048;-67
2022/05/01 08:28:02;;;;;;;4.68;3.20;;;;;;;20.08;34.84;97297.97;5044620;28;20057;-68
2022/05/01 08:30:29;;;;;;;7.55;4.07;;;;;;;20.82;34.15;97391.22;5043839;28;20053;-68
2022/05/01 08:32:57;;;;;;;5.25;4.10;;;;;;;20.58;34.61;97391.66;5044584;28;20045;-68
2022/05/01 08:35:24;;;;;;;4.07;3.67;;;;;;;20.97;34.40;97391.78;5043928;28;20511;-68
2022/05/01 08:37:50;;;;;;;3.90;3.60;;;;;;;20.98;33.50;97384.91;5042485;28;20057;-68
2022/05/01 08:40:18;;;;;;;4.13;3.72;;;;;;;20.89;33.23;97362.13;5044952;28;20052;-69
2022/05/01 08:42:45;;;;;;;3.90;3.60;;;;;;;20.03;34.66;97389.25;5043649;28;20110;-68
2022/05/01 08:45:14;;;;;;;6.07;3.92;;;;;;;20.37;34.81;97386.34;5041729;28;20053;-69
2022/05/01 08:47:55;;;;;;;4.38;3.45;;;;;;;17.39;35.16;97109.97;5043914;28;20065;-67
2022/05/01 08:50:23;;;;;;;3.88;3.60;;;;;;;18.55;37.20;97300.38;5044157;28;20447;-69
2022/05/01 08:52:50;;;;;;;3.22;3.03;;;;;;;19.46;35.11;97389.22;5044280;28;20499;-68
2022/05/01 08:55:18;;;;;;;5.05;3.47;;;;;;;19.13;34.37;97387.16;5060783;28;20487;-67
2022/05/01 08:57:44;;;;;;;3.42;3.05;;;;;;;19.43;34.50;97395.69;5063502;28;20052;-67
2022/05/01 09:00:16;;;;;;;6.07;3.33;;;;;;;19.22;35.00;97362.19;5063831;28;20056;-69
2022/05/01 09:02:44;;;;;;;3.22;3.00;;;;;;;18.29;36.21;97336.66;5063474;28;20048;-68
2022/05/01 09:05:12;;;;;;;3.30;3.00;;;;;;;18.73;34.91;97382.34;5061962;28;20129;-68
2022/05/01 09:07:39;;;;;;;3.70;3.40;;;;;;;19.43;34.37;97384.44;5062447;28;20131;-69
2022/05/01 09:10:08;;;;;;;3.47;3.17;;;;;;;19.47;33.57;97379.56;5064027;28;20044;-69
2022/05/01 09:12:52;;;;;;;5.70;4.15;;;;;;;19.54;33.68;97267.06;5063412;28;20405;-67
2022/05/01 09:15:36;;;;;;;4.47;3.38;;;;;;;19.61;32.54;97153.75;5062074;28;20048;-68
2022/05/01 09:18:05;;;;;;;4.65;3.60;;;;;;;21.52;32.11;97352.44;5063759;28;20147;-68
2022/05/01 09:20:32;;;;;;;4.78;3.97;;;;;;;21.68;31.39;97335.59;5061798;28;20574;-69
2022/05/01 09:23:00;;;;;;;4.22;3.90;;;;;;;21.89;31.66;97363.34;5063972;28;20052;-68
2022/05/01 09:25:28;;;;;;;4.18;3.88;;;;;;;21.44;31.13;97359.47;5063592;28;20049;-68
2022/05/01 09:27:57;;;;;;;4.32;3.30;;;;;;;19.73;33.08;97363.19;5063642;28;20051;-68
2022/05/01 09:30:35;;;;;;;3.42;3.13;;;;;;;18.91;35.24;97354.91;5061868;28;20518;-67
2022/05/01 09:33:02;;;;;;;4.82;4.13;;;;;;;20.15;34.77;97351.34;5063231;28;20238;-68
2022/05/01 09:35:36;;;;;;;5.00;3.50;;;;;;;20.45;32.56;97314.66;5063458;28;20048;-68
2022/05/01 09:38:15;;;;;;;6.55;5.00;;;;;;;21.10;33.04;97338.44;5061769;28;20059;-67
2022/05/01 09:40:47;;;;;;;4.32;3.90;;;;;;;21.40;32.15;97302.38;5063574;28;20056;-69
2022/05/01 09:43:35;;;;;;;4.57;3.67;;;;;;;20.98;31.10;97337.03;5063310;28;20558;-69
2022/05/01 09:46:20;;;;;;;3.30;3.00;;;;;;;21.49;31.03;97299.75;5063038;28;20059;-68
2022/05/01 09:49:08;;;;;;;3.58;3.33;;;;;;;22.41;29.96;97326.66;5063609;28;20059;-68
2022/05/01 09:51:38;;;;;;;5.55;3.88;;;;;;;22.57;29.29;97328.69;5062004;28;20059;-68
2022/05/01 09:54:06;;;;;;;4.68;4.28;;;;;;;21.75;31.33;97329.81;5063757;28;20059;-68
2022/05/01 09:56:46;;;;;;;3.35;3.15;;;;;;;19.51;33.00;97335.38;5063170;28;20060;-67
2022/05/01 09:59:14;;;;;;;3.78;3.47;;;;;;;19.18;33.69;97333.34;5066163;28;20052;-67
2022/05/01 10:01:54;;;;;;;3.20;3.00;;;;;;;18.62;34.86;97289.06;5066756;28;20052;-66
2022/05/01 10:04:23;;;;;;;5.82;3.60;;;;;;;19.06;35.49;97341.53;5065516;28;20510;-68
2022/05/01 10:06:55;;;;;;;4.20;3.85;;;;;;;18.96;34.15;97339.63;5067082;28;20060;-68
2022/05/01 10:09:24;;;;;;;6.47;3.95;;;;;;;19.12;35.83;97329.41;5059631;28;20147;-70
2022/05/01 10:11:54;;;;;;;4.55;3.65;;;;;;;19.27;34.73;97333.63;5078242;28;20057;-67
2022/05/01 10:14:22;;;;;;;4.60;4.15;;;;;;;18.36;34.67;97207.56;5067127;28;20056;-67
2022/05/01 10:16:50;;;;;;;3.25;3.00;;;;;;;18.55;34.41;97311.59;5066483;28;20052;-66
2022/05/01 10:19:18;;;;;;;4.38;3.50;;;;;;;19.01;34.44;97311.91;5066821;28;20048;-68
2022/05/01 10:21:53;;;;;;;4.80;2.80;;;;;;;18.77;34.74;97312.97;5066840;28;20064;-67
2022/05/01 10:24:20;;;;;;;3.25;2.95;;;;;;;18.87;32.79;97312.06;5067102;28;20447;-68
2022/05/01 10:27:05;;;;;;;18.33;8.43;;;;;;;18.96;35.31;97287.09;5066332;28;20068;-69
2022/05/01 10:32:45;;;;;;;4.72;3.28;;;;;;;19.99;33.78;97303.34;5072231;28;20052;-68
2022/05/01 10:35:49;;;;;;;4.95;3.70;;;;;;;20.63;33.27;97287.78;5066624;28;20066;-66
2022/05/01 10:38:25;;;;;;;3.83;3.53;;;;;;;21.67;32.14;97282.44;5064525;28;20060;-68
2022/05/01 10:40:54;;;;;;;4.05;3.75;;;;;;;22.41;30.87;97270.94;5066144;28;20057;-68
2022/05/01 10:43:30;;;;;;;3.97;3.67;;;;;;;23.04;29.54;97264.84;5064673;28;20060;-67
2022/05/01 10:46:01;;;;;;;4.07;3.83;;;;;;;23.17;29.73;97277.00;5064746;28;20141;-68
2022/05/01 10:48:40;;;;;;;4.88;4.47;;;;;;;21.98;29.84;97168.88;5066293;28;20055;-67
2022/05/01 10:51:31;;;;;;;4.22;3.90;;;;;;;22.96;29.15;97260.63;5066426;28;20045;-67
2022/05/01 10:54:10;;;;;;;3.67;3.47;;;;;;;23.15;28.43;97251.19;5066371;28;20051;-66
2022/05/01 10:56:48;;;;;;;4.88;4.47;;;;;;;23.09;28.86;97258.66;5064245;28;20052;-68
2022/05/01 10:59:43;;;;;;;5.43;4.90;;;;;;;22.74;28.91;97256.81;5065888;28;20060;-68
2022/05/01 11:02:24;;;;;;;4.13;3.83;;;;;;;22.01;29.75;97255.47;5065892;28;20135;-67
2022/05/01 11:04:53;;;;;;;8.15;5.32;;;;;;;22.10;29.51;97193.56;5064618;28;20066;-67
2022/05/01 11:07:21;;;;;;;4.68;4.18;;;;;;;22.18;31.05;97245.75;5064422;28;20060;-67
2022/05/01 11:09:49;;;;;;;7.72;3.83;;;;;;;21.26;31.08;97191.97;5065514;28;20048;-67
2022/05/01 11:12:19;;;;;;;4.00;3.63;;;;;;;20.46;32.26;97201.66;5066186;28;20070;-66
2022/05/01 11:14:52;;;;;;;3.78;3.47;;;;;;;20.32;33.57;97251.78;5066331;28;20056;-67
2022/05/01 11:17:49;;;;;;;3.88;3.00;;;;;;;19.50;34.98;97257.09;5065623;28;20509;-68
2022/05/01 11:20:19;;;;;;;4.28;3.22;;;;;;;19.46;34.66;97254.34;5065532;28;20055;-68
2022/05/01 11:22:46;;;;;;;11.38;5.60;;;;;;;19.09;34.74;97217.13;5064221;28;20059;-69
2022/05/01 11:25:31;;;;;;;3.42;3.10;;;;;;;18.97;35.15;97249.34;5065702;28;20056;-67
2022/05/01 11:27:59;;;;;;;4.35;3.78;;;;;;;19.06;36.40;97258.06;5065485;28;20534;-70
2022/05/01 11:30:30;;;;;;;5.55;3.13;;;;;;;19.13;35.94;97246.75;5066169;28;20052;-68
2022/05/01 11:33:08;;;;;;;4.18;3.70;;;;;;;19.63;35.75;97240.44;5065596;28;20049;-70
2022/05/01 11:36:02;;;;;;;4.10;3.72;;;;;;;19.22;36.66;97243.44;5065976;28;20099;-67
2022/05/01 11:38:35;;;;;;;6.05;4.38;;;;;;;19.34;36.54;97240.88;5065158;28;20059;-66
2022/05/01 11:41:03;;;;;;;7.88;5.22;;;;;;;20.15;34.75;97238.81;5065104;28;20061;-68
2022/05/01 11:43:31;;;;;;;4.30;3.90;;;;;;;19.11;35.92;97249.16;5065175;28;20056;-64
2022/05/01 11:46:01;;;;;;;6.32;4.70;;;;;;;19.61;36.49;97243.69;5064962;28;20408;-67
2022/05/01 11:48:28;;;;;;;4.05;3.42;;;;;;;19.24;36.69;97247.41;5064906;28;20048;-66
2022/05/01 11:50:59;;;;;;;4.65;3.65;;;;;;;19.90;35.36;97249.66;5065122;28;20059;-67
2022/05/01 11:53:28;;;;;;;3.90;3.60;;;;;;;19.43;35.40;97238.31;5063540;28;20052;-65
2022/05/01 12:04:25;;;;;;;3.90;3.60;;;;;;;19.37;36.66;97244.84;5064768;28;20044;-70
2022/05/01 12:06:58;;;;;;;4.05;3.70;;;;;;;20.14;36.45;97237.25;5064509;28;20045;-70
2022/05/01 12:09:28;;;;;;;3.97;3.67;;;;;;;20.27;34.66;97173.47;5063405;28;20143;-71
2022/05/01 12:11:55;;;;;;;3.70;3.40;;;;;;;21.19;33.71;97225.94;5064955;28;20044;-71
2022/05/01 12:14:22;;;;;;;4.00;3.67;;;;;;;21.42;32.82;97209.69;5065010;28;20168;-71
2022/05/01 12:16:49;;;;;;;3.90;3.50;;;;;;;21.33;33.27;97223.59;5063126;28;20059;-68